Time;durP1;ratioP1;P1;durP2;ratioP2;P2;SDS_P1;SDS_P2;PMS_P1;PMS_P2;Temp;Humidity;BMP_temperature;BMP_pressure;BME280_temperature;BME280_humidity;BME280_pressure;Samples;Min_cycle;Max_cycle;Signal;HPM_P1;HPM_P2
2022/09/02 00:01:23;;;;;;;5.25;2.30;;;;;;;14.14;57.81;100881.39;1678459;84;21141;-73
2022/09/02 00:03:53;;;;;;;8.33;2.20;;;;;;;14.11;57.96;100885.16;1697637;84;21001;-72
2022/09/02 00:06:19;;;;;;;5.33;2.22;;;;;;;14.07;58.22;100879.53;1700402;84;21066;-73
2022/09/02 00:08:47;;;;;;;4.55;2.30;;;;;;;14.04;58.50;100881.41;1702928;84;21027;-73
2022/09/02 00:11:17;;;;;;;5.03;2.45;;;;;;;13.98;58.68;100879.81;1702558;84;21061;-72
2022/09/02 00:13:44;;;;;;;8.33;2.45;;;;;;;13.93;58.90;100879.84;1703976;84;21356;-73
2022/09/02 00:16:12;;;;;;;6.22;1.90;;;;;;;13.90;59.01;100889.23;1695577;84;21071;-73
2022/09/02 00:18:40;;;;;;;6.20;2.50;;;;;;;13.90;59.26;100887.09;1676924;84;21058;-72
2022/09/02 00:21:07;;;;;;;5.58;2.33;;;;;;;13.86;59.49;100890.06;1675313;85;21015;-73
2022/09/02 00:23:34;;;;;;;7.80;2.60;;;;;;;13.82;59.67;100897.31;1682298;84;21067;-72
2022/09/02 00:26:01;;;;;;;7.33;2.67;;;;;;;13.80;59.84;100898.10;1690867;84;21260;-73
2022/09/02 00:28:27;;;;;;;4.12;1.82;;;;;;;13.79;59.92;100902.41;1679258;84;21102;-73
2022/09/02 00:30:55;;;;;;;3.25;2.02;;;;;;;13.76;59.97;100905.09;1689785;84;21191;-73
2022/09/02 00:33:22;;;;;;;5.03;2.30;;;;;;;13.76;60.09;100904.30;1689026;84;21118;-73
2022/09/02 00:35:49;;;;;;;4.55;2.35;;;;;;;13.76;60.11;100907.78;1692827;84;21013;-73
2022/09/02 00:38:15;;;;;;;4.10;2.30;;;;;;;13.76;60.18;100907.78;1704279;84;21100;-73
2022/09/02 00:40:47;;;;;;;5.15;2.30;;;;;;;13.74;60.11;100907.23;1689550;84;21048;-73
2022/09/02 00:43:25;;;;;;;4.75;2.50;;;;;;;13.71;60.09;100905.63;1682277;84;27290;-73
2022/09/02 00:45:53;;;;;;;4.17;2.25;;;;;;;13.68;60.09;100916.89;1682986;84;21689;-73
2022/09/02 00:48:20;;;;;;;3.77;2.22;;;;;;;13.63;60.13;100914.23;1679734;84;21214;-72
2022/09/02 00:50:46;;;;;;;3.77;2.60;;;;;;;13.57;60.16;100908.05;1690304;84;21123;-73
2022/09/02 00:53:13;;;;;;;4.20;2.70;;;;;;;13.55;60.28;100919.03;1688217;84;21221;-73
2022/09/02 00:55:45;;;;;;;4.15;2.60;;;;;;;13.50;60.45;100921.73;1690670;84;21076;-73
2022/09/02 00:58:21;;;;;;;4.12;2.60;;;;;;;13.50;60.71;100926.30;1683917;84;21662;-73
2022/09/02 01:00:51;;;;;;;4.50;2.60;;;;;;;13.46;60.78;100926.53;1682146;84;21075;-72
2022/09/02 01:03:20;;;;;;;4.35;2.70;;;;;;;13.42;60.76;100928.15;1691028;84;21124;-71
2022/09/02 01:05:49;;;;;;;4.15;2.90;;;;;;;13.39;60.87;100932.16;1688671;84;21044;-72
2022/09/02 01:08:23;;;;;;;4.45;2.90;;;;;;;13.34;60.87;100929.49;1685164;84;21060;-73
2022/09/02 01:10:54;;;;;;;4.22;2.90;;;;;;;13.27;60.88;100932.43;1685016;84;21155;-72
2022/09/02 01:13:27;;;;;;;4.50;2.72;;;;;;;13.21;60.94;100923.27;1688949;84;21028;-72
2022/09/02 01:16:19;;;;;;;4.80;2.72;;;;;;;13.14;61.03;100925.66;1691171;84;21622;-71
2022/09/02 01:18:51;;;;;;;4.92;2.75;;;;;;;13.07;61.14;100930.48;1677195;84;21017;-73
2022/09/02 01:21:18;;;;;;;4.22;2.67;;;;;;;12.99;61.26;100923.47;1676097;85;21103;-73
2022/09/02 01:23:46;;;;;;;4.08;2.87;;;;;;;12.88;61.43;100932.83;1675252;84;20983;-73
2022/09/02 01:26:13;;;;;;;4.15;2.60;;;;;;;12.83;61.73;100934.67;1689790;84;21157;-73
2022/09/02 01:28:39;;;;;;;5.40;2.58;;;;;;;12.79;61.92;100930.38;1704125;84;21496;-73
2022/09/02 01:31:06;;;;;;;5.42;2.45;;;;;;;12.78;62.14;100939.49;1688568;84;21040;-74
2022/09/02 01:33:33;;;;;;;3.98;2.47;;;;;;;12.80;62.21;100945.92;1675560;85;21079;-72
2022/09/02 01:36:01;;;;;;;6.22;2.75;;;;;;;12.81;62.19;100952.91;1676739;84;21040;-72
2022/09/02 01:38:29;;;;;;;4.85;2.90;;;;;;;12.76;62.08;100950.20;1688608;84;21131;-73
2022/09/02 01:40:56;;;;;;;4.53;2.50;;;;;;;12.67;62.11;100956.61;1691460;84;21273;-74
2022/09/02 01:43:25;;;;;;;5.15;2.65;;;;;;;12.60;62.19;100954.67;1691552;84;21071;-72
2022/09/02 01:45:54;;;;;;;4.78;2.50;;;;;;;12.54;62.22;100955.20;1689963;84;21072;-73
2022/09/02 01:48:21;;;;;;;6.83;2.87;;;;;;;12.50;62.29;100958.10;1687620;84;21109;-73
2022/09/02 01:50:57;;;;;;;4.28;2.70;;;;;;;12.48;62.39;100960.25;1677159;84;21492;-73
2022/09/02 01:53:25;;;;;;;5.50;2.60;;;;;;;12.46;62.49;100957.55;1673054;85;21304;-73
2022/09/02 01:55:52;;;;;;;4.87;2.85;;;;;;;12.47;62.58;100965.86;1679628;84;21013;-74
2022/09/02 01:58:18;;;;;;;5.03;3.00;;;;;;;12.46;62.68;100965.59;1688676;84;21167;-73
2022/09/02 02:00:46;;;;;;;4.67;2.83;;;;;;;12.42;62.80;100967.98;1690372;84;21709;-73
2022/09/02 02:03:13;;;;;;;4.45;2.70;;;;;;;12.36;63.06;100967.14;1690944;84;21028;-73
2022/09/02 02:05:40;;;;;;;4.20;3.02;;;;;;;12.37;63.15;100971.95;1690840;84;21141;-74
2022/09/02 02:08:07;;;;;;;5.87;2.92;;;;;;;12.35;63.24;100970.89;1680150;84;21047;-73
2022/09/02 02:10:35;;;;;;;4.83;2.67;;;;;;;12.28;63.43;100967.64;1690407;84;21140;-72
2022/09/02 02:13:01;;;;;;;5.05;2.80;;;;;;;12.24;63.68;100971.07;1689982;84;21040;-73
2022/09/02 02:15:30;;;;;;;5.50;2.95;;;;;;;12.17;63.88;100976.65;1681996;84;21064;-73
2022/09/02 02:17:59;;;;;;;5.58;3.10;;;;;;;12.11;64.03;100974.48;1684508;84;21189;-73
2022/09/02 02:20:25;;;;;;;5.35;3.08;;;;;;;12.10;64.20;100970.71;1688321;84;21154;-74
2022/09/02 02:22:53;;;;;;;5.35;2.87;;;;;;;12.11;64.27;100975.00;1690402;84;21626;-73
2022/09/02 02:25:20;;;;;;;4.67;2.77;;;;;;;12.15;64.28;100976.92;1668267;84;21411;-73
2022/09/02 02:27:48;;;;;;;4.33;2.77;;;;;;;12.17;64.27;100973.47;1674870;85;21230;-73
2022/09/02 02:30:16;;;;;;;4.95;2.62;;;;;;;12.18;64.19;100972.92;1675989;85;21894;-74
2022/09/02 02:32:45;;;;;;;4.90;2.77;;;;;;;12.18;64.09;100978.28;1689178;84;21062;-74
2022/09/02 02:35:15;;;;;;;4.85;2.50;;;;;;;12.19;64.02;100975.87;1662417;84;21037;-74
2022/09/02 02:37:43;;;;;;;6.10;2.62;;;;;;;12.19;64.00;100971.31;1687785;84;21579;-72
2022/09/02 02:40:11;;;;;;;6.67;2.77;;;;;;;12.20;64.00;100974.80;1691693;84;21147;-74
2022/09/02 02:42:38;;;;;;;5.83;2.67;;;;;;;12.20;64.02;100972.13;1690035;84;21181;-73
2022/09/02 02:45:08;;;;;;;6.33;3.02;;;;;;;12.24;63.93;100973.75;1680100;84;21082;-73
2022/09/02 02:47:41;;;;;;;6.92;3.15;;;;;;;12.25;63.76;100978.86;1683827;84;21028;-73
2022/09/02 02:50:10;;;;;;;6.67;3.05;;;;;;;12.27;63.79;100974.04;1689999;84;29098;-73
2022/09/02 02:52:39;;;;;;;5.87;3.00;;;;;;;12.28;63.81;100978.89;1675430;84;21099;-74
2022/09/02 02:55:06;;;;;;;4.42;2.70;;;;;;;12.29;63.79;100979.95;1675609;85;21785;-73
2022/09/02 02:57:35;;;;;;;4.28;2.58;;;;;;;12.29;63.72;100981.30;1668419;85;21110;-73
2022/09/02 03:00:24;;;;;;;5.45;2.98;;;;;;;12.29;63.61;100983.17;1665985;86;21042;-71
2022/09/02 03:02:56;;;;;;;5.08;2.90;;;;;;;12.28;63.53;100984.24;1666824;85;20992;-72
2022/09/02 03:05:23;;;;;;;6.08;3.05;;;;;;;12.28;63.46;100991.74;1671580;85;21632;-72
2022/09/02 03:07:50;;;;;;;4.47;2.60;;;;;;;12.24;63.50;100994.67;1697575;84;21500;-71
2022/09/02 03:10:19;;;;;;;7.83;3.35;;;;;;;12.24;63.50;100991.16;1704147;84;21106;-70
2022/09/02 03:12:46;;;;;;;5.20;3.00;;;;;;;12.22;63.51;100995.98;1703948;84;21027;-71
2022/09/02 03:15:16;;;;;;;4.08;2.50;;;;;;;12.19;63.52;101004.80;1691248;84;21044;-70
2022/09/02 03:17:46;;;;;;;3.67;2.20;;;;;;;12.17;63.47;101000.75;1666906;85;20984;-71
2022/09/02 03:20:14;;;;;;;5.33;2.67;;;;;;;12.14;63.50;101009.30;1684571;84;21194;-71
2022/09/02 03:22:46;;;;;;;5.87;2.50;;;;;;;12.12;63.45;101010.91;1685718;84;21013;-72
2022/09/02 03:25:16;;;;;;;4.83;2.70;;;;;;;12.10;63.43;101010.34;1688951;84;21019;-72
2022/09/02 03:27:45;;;;;;;5.12;2.80;;;;;;;12.07;63.46;101010.05;1691539;84;21068;-71
2022/09/02 03:30:17;;;;;;;4.55;2.52;;;;;;;12.03;63.50;101016.98;1685311;84;21050;-72
2022/09/02 03:32:46;;;;;;;4.10;2.67;;;;;;;12.01;63.63;101017.75;1685161;84;21265;-72
2022/09/02 03:35:17;;;;;;;5.10;2.52;;;;;;;12.04;63.72;101021.27;1688833;84;21083;-72
2022/09/02 03:37:44;;;;;;;5.50;2.75;;;;;;;12.08;63.73;101028.55;1687967;84;21575;-73
2022/09/02 03:40:16;;;;;;;4.97;2.77;;;;;;;12.10;63.69;101036.31;1692460;84;21543;-71
2022/09/02 03:42:45;;;;;;;7.10;4.30;;;;;;;12.11;63.64;101034.73;1687800;84;21055;-73
2022/09/02 03:45:14;;;;;;;6.97;4.17;;;;;;;12.15;63.60;101041.72;1688365;84;21243;-72
2022/09/02 03:47:49;;;;;;;6.97;4.50;;;;;;;12.17;63.58;101040.41;1685900;84;21032;-72
2022/09/02 03:50:12;;;;;;;8.78;5.65;;;;;;;12.20;63.52;101041.75;1681918;84;22449;-73
2022/09/02 03:52:39;;;;;;;7.30;5.90;;;;;;;12.21;63.42;101055.44;1703923;84;21031;-72
2022/09/02 03:55:09;;;;;;;7.83;6.12;;;;;;;12.18;63.37;101051.92;1702863;84;21046;-71
2022/09/02 03:57:36;;;;;;;10.98;6.50;;;;;;;12.18;63.45;101051.39;1702335;84;21271;-73
2022/09/02 04:00:07;;;;;;;7.12;6.35;;;;;;;12.22;63.55;101054.90;1704051;84;20963;-73
2022/09/02 04:02:35;;;;;;;7.78;5.92;;;;;;;12.25;63.63;101060.55;1709633;83;21032;-72
2022/09/02 04:05:02;;;;;;;6.65;5.22;;;;;;;12.32;63.65;101057.66;1716774;83;21027;-71
2022/09/02 04:07:29;;;;;;;8.50;5.25;;;;;;;12.39;63.73;101061.72;1662389;84;21095;-72
2022/09/02 04:09:57;;;;;;;9.93;5.33;;;;;;;12.49;63.78;101064.20;1660408;86;21555;-71
2022/09/02 04:12:25;;;;;;;10.85;5.67;;;;;;;12.58;63.85;101059.99;1667490;85;21624;-72
2022/09/02 04:14:52;;;;;;;7.83;5.58;;;;;;;12.65;64.08;101064.59;1674359;85;21043;-72
2022/09/02 04:17:20;;;;;;;8.83;5.50;;;;;;;12.73;64.39;101068.66;1675061;85;21059;-72
2022/09/02 04:19:47;;;;;;;8.33;6.17;;;;;;;12.78;64.67;101072.18;1677651;84;21175;-72
2022/09/02 04:22:14;;;;;;;9.08;6.60;;;;;;;12.88;64.91;101067.41;1703957;84;21120;-72
2022/09/02 04:24:40;;;;;;;9.98;6.50;;;;;;;13.01;65.13;101072.84;1697205;84;21620;-72
2022/09/02 04:27:07;;;;;;;11.20;7.45;;;;;;;13.16;65.26;101071.56;1690042;84;20995;-72
2022/09/02 04:29:35;;;;;;;11.30;7.75;;;;;;;13.32;65.40;101073.27;1675698;85;21000;-72
2022/09/02 04:32:02;;;;;;;11.80;8.08;;;;;;;13.48;65.48;101079.51;1665974;84;21598;-73
2022/09/02 04:34:30;;;;;;;11.70;7.62;;;;;;;13.64;65.39;101071.52;1682970;84;21202;-72
2022/09/02 04:36:56;;;;;;;11.57;7.55;;;;;;;13.79;65.23;101068.33;1675342;85;21074;-72
2022/09/02 04:39:23;;;;;;;11.28;7.58;;;;;;;13.95;64.79;101073.70;1685558;84;21581;-72
2022/09/02 04:41:52;;;;;;;12.80;7.78;;;;;;;14.10;64.18;101069.70;1690351;84;21033;-73
2022/09/02 04:44:20;;;;;;;10.25;7.60;;;;;;;14.23;63.51;101079.12;1684570;84;21079;-72
2022/09/02 04:46:47;;;;;;;13.97;7.50;;;;;;;14.35;62.85;101078.86;1686808;84;21146;-72
2022/09/02 04:49:16;;;;;;;10.67;7.70;;;;;;;14.42;62.36;101074.02;1679856;84;21934;-73
2022/09/02 04:51:44;;;;;;;10.73;7.90;;;;;;;14.52;61.83;101076.19;1679796;84;21567;-73
2022/09/02 04:54:10;;;;;;;11.73;8.00;;;;;;;14.60;61.35;101073.48;1683677;84;21361;-73
2022/09/02 04:56:39;;;;;;;10.27;7.40;;;;;;;14.72;61.01;101075.89;1690701;84;21079;-73
2022/09/02 04:59:07;;;;;;;10.77;7.67;;;;;;;14.82;60.51;101077.76;1682788;84;21264;-73
2022/09/02 05:01:35;;;;;;;11.23;7.67;;;;;;;14.90;60.26;101075.84;1677056;84;21378;-73
2022/09/02 05:04:08;;;;;;;10.30;7.63;;;;;;;15.01;60.07;101084.17;1651626;85;21276;-72
2022/09/02 05:06:36;;;;;;;10.10;7.30;;;;;;;15.09;59.80;101079.55;1649631;85;21491;-72
2022/09/02 05:09:04;;;;;;;11.10;7.40;;;;;;;15.15;59.63;101077.66;1671402;83;21221;-72
2022/09/02 05:11:33;;;;;;;9.77;7.00;;;;;;;15.20;59.70;101078.97;1704433;83;21688;-72
2022/09/02 05:14:02;;;;;;;10.00;7.00;;;;;;;15.31;59.64;101075.72;1686478;84;21788;-72
2022/09/02 05:16:33;;;;;;;10.80;7.50;;;;;;;15.40;59.35;101078.91;1683698;84;21346;-73
2022/09/02 05:19:02;;;;;;;;;;;;;;;15.41;59.10;101083.75;1689244;84;21329;-72
2022/09/02 05:21:31;;;;;;;11.20;6.93;;;;;;;15.44;58.65;101082.66;1685747;84;20178;-72
2022/09/02 05:23:59;;;;;;;10.97;7.37;;;;;;;15.55;58.32;101082.05;1688780;84;21616;-72
2022/09/02 05:26:26;;;;;;;11.07;7.67;;;;;;;15.68;57.93;101080.67;1691122;84;21293;-73
2022/09/02 05:28:53;;;;;;;11.27;7.30;;;;;;;15.81;57.59;101081.41;1688379;84;21249;-72
2022/09/02 05:31:20;;;;;;;10.83;7.33;;;;;;;15.93;57.31;101083.22;1684460;84;21301;-72
2022/09/02 05:33:48;;;;;;;11.37;8.03;;;;;;;16.07;57.13;101086.08;1683292;84;21834;-71
2022/09/02 05:36:19;;;;;;;14.80;8.10;;;;;;;16.20;56.99;101090.03;1684861;84;21567;-75
2022/09/02 05:38:47;;;;;;;9.47;6.17;;;;;;;16.34;56.90;101092.33;1662955;84;21099;-73
2022/09/02 05:41:18;;;;;;;8.60;6.17;;;;;;;16.49;56.34;101094.11;1682742;84;21235;-72
2022/09/02 05:43:47;;;;;;;8.17;6.10;;;;;;;16.62;55.79;101093.45;1701751;84;21314;-72
2022/09/02 05:46:16;;;;;;;8.03;5.37;;;;;;;16.78;54.59;101092.80;1704050;84;21320;-73
2022/09/02 05:51:32;;;;;;;9.43;4.90;;;;;;;16.91;52.48;101091.28;1648497;87;21957;-74
2022/09/02 05:54:00;;;;;;;9.00;5.00;;;;;;;17.02;52.24;101092.80;1667351;84;21510;-75
2022/09/02 05:56:28;;;;;;;8.93;5.33;;;;;;;17.13;51.90;101092.69;1702979;84;21674;-73
2022/09/02 05:58:57;;;;;;;8.47;5.30;;;;;;;17.32;51.50;101097.03;1704557;84;21519;-74
2022/09/02 06:01:26;;;;;;;8.80;5.40;;;;;;;17.32;51.50;101097.03;1705673;84;21436;-73
2022/09/02 06:03:54;;;;;;;7.50;4.17;;;;;;;17.42;51.31;101092.05;1688110;84;21625;-75
2022/09/02 06:06:22;;;;;;;5.40;3.90;;;;;;;17.54;50.75;101097.05;1693589;84;21337;-74
2022/09/02 06:08:50;;;;;;;9.53;4.50;;;;;;;17.67;50.15;101095.50;1698537;84;21912;-74
2022/09/02 06:11:18;;;;;;;7.97;4.33;;;;;;;17.83;48.76;101098.83;1697317;84;21548;-75
2022/09/02 06:13:45;;;;;;;5.50;3.23;;;;;;;17.89;46.84;101105.22;1704207;84;22003;-74
2022/09/02 06:16:15;;;;;;;5.30;2.87;;;;;;;17.90;46.64;101106.84;1704241;84;21544;-73
2022/09/02 06:18:42;;;;;;;5.33;2.90;;;;;;;17.90;46.64;101106.84;1697907;84;21790;-73
2022/09/02 06:21:09;;;;;;;5.40;2.80;;;;;;;17.98;46.52;101099.41;1692817;84;21638;-73
2022/09/02 06:23:38;;;;;;;4.50;2.23;;;;;;;18.07;45.74;101112.28;1663939;85;21713;-73
2022/09/02 06:26:10;;;;;;;6.90;3.10;;;;;;;18.04;45.37;101113.11;1648642;87;21827;-73
2022/09/02 06:28:37;;;;;;;7.13;3.57;;;;;;;18.04;45.47;101112.31;1671111;84;21696;-74
2022/09/02 06:31:14;;;;;;;6.13;3.47;;;;;;;18.09;45.42;101112.77;1682518;84;22321;-74
2022/09/02 06:33:46;;;;;;;5.57;3.00;;;;;;;18.16;45.82;101114.55;1625626;85;22106;-73
2022/09/02 06:36:15;;;;;;;5.10;2.90;;;;;;;18.24;45.06;101120.66;1686396;84;21781;-74
2022/09/02 06:38:46;;;;;;;6.33;3.40;;;;;;;18.26;45.19;101121.14;1674233;84;21758;-74
2022/09/02 06:41:15;;;;;;;5.93;3.33;;;;;;;18.31;45.25;101125.14;1682660;84;21758;-73
2022/09/02 06:43:42;;;;;;;6.80;3.20;;;;;;;18.41;45.06;101118.20;1688139;84;21771;-74
2022/09/02 06:46:23;;;;;;;7.00;4.30;;;;;;;18.48;45.39;101120.53;1690117;84;21844;-73
2022/09/02 06:48:51;;;;;;;6.97;3.93;;;;;;;18.51;44.49;101121.30;1676532;84;20994;-73
2022/09/02 06:51:33;;;;;;;8.13;4.50;;;;;;;18.57;44.37;101119.31;1546896;85;10000626;-74
2022/09/02 06:54:01;;;;;;;7.80;4.35;;;;;;;18.63;44.70;101119.48;1524065;87;9999633;-73
2022/09/02 06:56:29;;;;;;;6.20;4.00;;;;;;;18.73;44.57;101119.33;1601873;85;21596;-74
2022/09/02 06:58:56;;;;;;;10.03;4.13;;;;;;;18.74;44.07;101126.34;1645208;87;21288;-74
2022/09/02 07:01:27;;;;;;;5.90;3.77;;;;;;;18.79;44.23;101129.49;1617378;88;21182;-72
2022/09/02 07:06:44;;;;;;;6.93;3.63;;;;;;;19.02;43.67;101136.67;1611493;88;21431;-73
2022/09/02 07:09:16;;;;;;;6.43;3.70;;;;;;;19.15;43.21;101139.94;1644494;85;21169;-75
2022/09/02 07:11:47;;;;;;;5.33;3.50;;;;;;;19.25;42.98;101139.47;1621005;87;21212;-75
2022/09/02 07:14:17;;;;;;;6.47;3.98;;;;;;;19.30;41.55;101138.02;1630936;86;21072;-73
2022/09/02 07:16:58;;;;;;;7.17;3.67;;;;;;;19.34;42.15;101142.52;1622617;87;21081;-75
2022/09/02 07:19:22;;;;;;;8.37;4.73;;;;;;;19.41;42.10;101134.83;1640831;85;21608;-74
2022/09/02 07:21:49;;;;;;;10.53;6.73;;;;;;;19.53;42.04;101135.64;1615549;88;21152;-76
2022/09/02 07:24:16;;;;;;;21.60;12.20;;;;;;;19.66;41.20;101144.90;1629695;85;21085;-74
2022/09/02 07:26:43;;;;;;;16.83;11.20;;;;;;;19.72;40.91;101143.69;1687842;83;21148;-77
2022/09/02 07:29:12;;;;;;;16.00;11.23;;;;;;;19.72;40.66;101139.63;1697761;83;21074;-75
2022/09/02 07:31:42;;;;;;;17.13;12.20;;;;;;;19.74;40.72;101137.95;1694508;83;21117;-76
2022/09/02 07:34:10;;;;;;;18.02;12.37;;;;;;;19.80;40.58;101136.17;1693893;83;21620;-75
2022/09/02 07:36:38;;;;;;;17.83;11.30;;;;;;;19.82;40.35;101138.04;1695008;83;21622;-74
2022/09/02 07:39:08;;;;;;;17.37;11.40;;;;;;;19.89;40.34;101134.35;1685241;83;21526;-72
2022/09/02 07:41:37;;;;;;;14.40;10.47;;;;;;;20.02;39.73;101136.78;1693097;83;21743;-75
2022/09/02 07:44:05;;;;;;;17.03;11.93;;;;;;;20.17;39.67;101139.70;1705135;83;21609;-74
2022/09/02 07:46:32;;;;;;;17.80;12.67;;;;;;;20.27;38.85;101136.75;1701711;83;21133;-76
2022/09/02 07:49:00;;;;;;;16.23;11.97;;;;;;;20.39;38.59;101134.82;1676850;84;21154;-76
2022/09/02 07:51:27;;;;;;;17.73;11.70;;;;;;;20.56;38.47;101132.80;1690497;84;21029;-74
2022/09/02 07:53:55;;;;;;;15.30;10.63;;;;;;;20.78;38.18;101127.34;1695777;83;22312;-76
2022/09/02 07:56:23;;;;;;;13.77;9.20;;;;;;;20.91;36.05;101127.57;1704532;83;21641;-74
2022/09/02 07:58:51;;;;;;;14.37;10.37;;;;;;;21.01;35.00;101125.37;1673987;85;21095;-75
2022/09/02 08:01:19;;;;;;;16.87;10.90;;;;;;;21.08;34.54;101126.28;1685518;84;21520;-74
2022/09/02 08:03:46;;;;;;;23.60;15.23;;;;;;;21.11;33.76;101128.37;1680569;84;21600;-73
2022/09/02 08:06:13;;;;;;;21.27;15.00;;;;;;;21.16;34.63;101126.05;1686068;84;21045;-74
2022/09/02 08:08:41;;;;;;;27.17;17.63;;;;;;;21.23;34.69;101126.42;1681975;84;21033;-74
2022/09/02 08:11:09;;;;;;;19.60;16.20;;;;;;;21.27;34.71;101130.91;1650263;85;21086;-74
2022/09/02 08:13:42;;;;;;;22.93;16.77;;;;;;;21.33;35.34;101122.63;1640143;85;21044;-73
2022/09/02 08:16:08;;;;;;;22.70;17.37;;;;;;;21.35;35.03;101125.27;1700728;83;21139;-74
2022/09/02 08:18:35;;;;;;;22.00;16.33;;;;;;;21.47;34.63;101121.95;1646506;87;21049;-76
2022/09/02 08:21:02;;;;;;;22.83;16.50;;;;;;;21.52;34.17;101115.02;1646436;87;21095;-75
2022/09/02 08:23:30;;;;;;;24.10;17.97;;;;;;;21.59;34.00;101118.07;1649624;84;21626;-73
2022/09/02 08:26:01;;;;;;;21.73;16.13;;;;;;;21.65;33.85;101122.24;1692758;83;21844;-73
2022/09/02 08:28:30;;;;;;;;;;;;;;;21.78;33.61;101114.50;1678270;84;21508;-75
2022/09/02 08:30:58;;;;;;;16.73;11.63;;;;;;;21.89;33.91;101116.90;1689054;84;20438;-73
2022/09/02 08:33:24;;;;;;;23.83;18.70;;;;;;;21.92;31.92;101111.62;1683500;84;21089;-75
2022/09/02 08:35:51;;;;;;;23.80;18.50;;;;;;;21.98;33.74;101105.44;1686790;84;21155;-74
2022/09/02 08:38:17;;;;;;;25.30;17.50;;;;;;;22.04;33.46;101104.16;1685224;84;22217;-74
2022/09/02 08:40:45;;;;;;;20.23;16.53;;;;;;;22.10;33.64;101108.31;1688992;84;21563;-74
2022/09/02 08:43:41;;;;;;;19.13;14.73;;;;;;;22.18;32.79;101106.77;1691548;84;21224;-74
2022/09/02 08:46:13;;;;;;;20.33;13.57;;;;;;;22.22;32.00;101102.27;1687901;84;21119;-74
2022/09/02 08:48:51;;;;;;;17.50;12.90;;;;;;;22.21;31.85;101107.45;1689419;84;21162;-74
2022/09/02 08:51:42;;;;;;;19.87;14.07;;;;;;;22.22;31.76;101100.34;1691984;84;21268;-77
2022/09/02 08:54:31;;;;;;;18.73;13.43;;;;;;;22.23;31.57;101104.66;1697246;84;21532;-73
2022/09/02 08:57:01;;;;;;;14.23;9.03;;;;;;;22.20;31.41;101110.73;1704998;84;20998;-75
2022/09/02 08:59:30;;;;;;;13.10;9.30;;;;;;;22.08;30.55;101098.88;1691025;84;20976;-75
2022/09/02 09:02:19;;;;;;;12.23;8.13;;;;;;;21.97;31.18;101099.20;1694048;84;21093;-74
2022/09/02 09:05:07;;;;;;;9.37;7.13;;;;;;;21.99;31.72;101099.69;1653250;84;21300;-74
2022/09/02 09:07:55;;;;;;;10.87;7.17;;;;;;;22.08;30.93;101099.70;1701359;84;21599;-76
2022/09/02 09:10:53;;;;;;;7.80;4.77;;;;;;;22.17;31.03;101098.34;1699031;84;21025;-74
2022/09/02 09:13:33;;;;;;;6.83;4.20;;;;;;;22.22;30.11;101100.91;1682923;84;21052;-74
2022/09/02 09:16:23;;;;;;;5.87;3.83;;;;;;;22.21;30.23;101093.84;1691375;84;21115;-73
2022/09/02 09:19:26;;;;;;;8.10;4.50;;;;;;;22.28;29.77;101098.80;1697108;84;21917;-72
2022/09/02 09:21:53;;;;;;;7.60;4.20;;;;;;;22.27;29.67;101099.93;1693089;84;21024;-74
2022/09/02 09:24:39;;;;;;;7.73;4.17;;;;;;;22.13;29.48;101103.59;1693002;84;21085;-74
2022/09/02 09:27:15;;;;;;;5.60;3.50;;;;;;;22.03;29.62;101103.92;1666470;84;21126;-76
2022/09/02 09:29:41;;;;;;;5.87;3.47;;;;;;;22.10;28.93;101100.16;1686446;84;21665;-75
2022/09/02 09:32:29;;;;;;;7.47;4.10;;;;;;;22.11;28.97;101096.34;1689852;84;21499;-71
2022/09/02 09:35:02;;;;;;;6.33;3.60;;;;;;;22.13;29.27;101100.08;1683466;84;21492;-73
2022/09/02 09:37:47;;;;;;;6.50;3.30;;;;;;;22.26;29.93;101101.06;1675854;84;21107;-74
2022/09/02 09:40:25;;;;;;;7.17;3.80;;;;;;;22.34;30.07;101101.05;1702332;84;21002;-74
2022/09/02 09:43:11;;;;;;;6.10;3.80;;;;;;;22.36;29.87;101102.88;1700799;84;21036;-74
2022/09/02 09:45:48;;;;;;;7.27;3.70;;;;;;;22.31;29.97;101104.95;1699056;83;21253;-75
2022/09/02 09:48:22;;;;;;;5.53;3.37;;;;;;;22.14;30.00;101107.11;1702095;84;20970;-74
2022/09/02 09:51:00;;;;;;;6.73;3.33;;;;;;;21.95;29.58;101106.10;1686777;83;21092;-73
2022/09/02 09:53:32;;;;;;;7.40;3.83;;;;;;;21.81;29.86;101113.03;1686918;84;21102;-74
2022/09/02 09:56:16;;;;;;;5.03;2.87;;;;;;;21.80;29.66;101106.01;1698823;84;21041;-75
2022/09/02 09:58:47;;;;;;;6.30;3.60;;;;;;;21.96;28.95;101103.62;1698292;84;21131;-74
2022/09/02 10:01:30;;;;;;;5.62;3.12;;;;;;;22.14;29.83;101105.19;1690439;84;22076;-73
2022/09/02 10:04:08;;;;;;;5.33;3.40;;;;;;;22.32;28.95;101097.05;1687521;84;21100;-74
2022/09/02 10:06:40;;;;;;;7.80;3.40;;;;;;;22.42;28.87;101095.34;1692218;84;21670;-72
2022/09/02 10:09:22;;;;;;;6.10;3.03;;;;;;;22.53;29.15;101095.80;1681314;84;20997;-74
2022/09/02 10:12:01;;;;;;;8.23;4.37;;;;;;;22.59;28.80;101089.05;1689875;84;21920;-74
2022/09/02 10:14:36;;;;;;;6.23;3.50;;;;;;;22.67;28.67;101090.41;1688217;84;21111;-74
2022/09/02 10:17:30;;;;;;;5.43;3.07;;;;;;;22.67;28.63;101089.04;1685384;84;21123;-72
2022/09/02 10:20:17;;;;;;;4.30;2.37;;;;;;;22.70;28.43;101097.09;1690372;84;21734;-75
2022/09/02 10:23:18;;;;;;;5.63;3.20;;;;;;;22.75;28.22;101087.97;1668718;84;21475;-74
2022/09/02 10:25:52;;;;;;;6.67;3.47;;;;;;;22.78;27.69;101082.66;1674147;85;21155;-74
2022/09/02 10:28:43;;;;;;;7.73;3.30;;;;;;;22.73;27.20;101081.47;1675564;85;21139;-75
2022/09/02 10:31:48;;;;;;;6.90;3.50;;;;;;;22.76;27.58;101082.18;1680423;84;21009;-73
2022/09/02 10:34:46;;;;;;;5.10;3.30;;;;;;;22.89;27.52;101101.59;1691350;84;21115;-74
2022/09/02 10:37:19;;;;;;;6.47;3.20;;;;;;;22.84;27.36;101085.45;1689043;84;21560;-73
2022/09/02 10:40:01;;;;;;;;;;;;;;;22.83;27.44;101086.55;1677817;85;21186;-74
2022/09/02 10:42:49;;;;;;;6.35;3.17;;;;;;;22.88;27.39;101095.91;1676230;85;20204;-75
2022/09/02 10:45:36;;;;;;;4.50;3.00;;;;;;;22.93;27.28;101090.87;1674492;85;21123;-73
2022/09/02 10:48:14;;;;;;;5.53;2.90;;;;;;;22.98;27.58;101092.62;1675718;84;21075;-73
2022/09/02 10:51:19;;;;;;;5.57;2.80;;;;;;;22.96;28.09;101089.42;1688304;84;21091;-74
2022/09/02 10:54:18;;;;;;;7.23;2.80;;;;;;;23.05;27.45;101095.06;1691084;84;21114;-73
2022/09/02 10:57:00;;;;;;;5.27;3.10;;;;;;;23.21;26.94;101091.80;1689699;84;21178;-74
2022/09/02 10:59:38;;;;;;;6.05;2.67;;;;;;;23.24;26.91;101095.22;1662498;85;21020;-73
2022/09/02 11:02:31;;;;;;;4.90;3.10;;;;;;;23.26;26.79;101097.03;1675697;85;21123;-71
2022/09/02 11:05:21;;;;;;;6.27;3.20;;;;;;;23.30;27.38;101092.55;1677280;84;21117;-74
2022/09/02 11:08:03;;;;;;;5.50;3.10;;;;;;;23.29;26.84;101090.36;1676652;84;21090;-74
2022/09/02 11:10:44;;;;;;;5.78;3.10;;;;;;;23.34;27.13;101088.02;1690826;84;21177;-75
2022/09/02 11:13:24;;;;;;;5.87;2.80;;;;;;;23.49;26.86;101088.78;1697851;83;21575;-74
2022/09/02 11:16:07;;;;;;;5.63;3.00;;;;;;;23.67;27.18;101090.05;1706521;83;21080;-74
2022/09/02 11:18:43;;;;;;;4.80;3.20;;;;;;;23.81;27.08;101087.30;1704787;83;21426;-73
2022/09/02 11:21:31;;;;;;;5.83;3.03;;;;;;;23.82;26.69;101088.09;1706024;83;21186;-71
2022/09/02 11:24:24;;;;;;;6.23;3.40;;;;;;;23.79;26.71;101090.13;1702684;83;21131;-73
2022/09/02 11:27:34;;;;;;;5.40;3.30;;;;;;;23.69;26.50;101090.53;1687549;84;21172;-72
2022/09/02 11:30:14;;;;;;;4.87;2.90;;;;;;;23.64;26.40;101090.94;1688480;84;21076;-75
2022/09/02 11:33:13;;;;;;;5.10;3.05;;;;;;;23.64;26.51;101087.41;1681188;84;21673;-75
2022/09/02 11:35:41;;;;;;;4.40;3.07;;;;;;;23.72;26.26;101078.38;1670601;84;21900;-74
2022/09/02 11:38:30;;;;;;;6.10;3.03;;;;;;;23.72;26.20;101085.77;1686463;84;21119;-73
2022/09/02 11:41:22;;;;;;;5.27;2.97;;;;;;;23.68;26.13;101078.00;1678979;84;21123;-72
2022/09/02 11:43:57;;;;;;;5.08;3.30;;;;;;;23.73;26.94;101080.56;1683056;84;22211;-75
2022/09/02 11:46:41;;;;;;;4.87;3.10;;;;;;;23.91;26.16;101072.45;1682648;84;20969;-74
2022/09/02 11:49:29;;;;;;;6.43;3.20;;;;;;;24.04;25.93;101073.30;1684924;84;21182;-73
2022/09/02 11:52:22;;;;;;;5.73;3.57;;;;;;;24.10;25.37;101064.57;1685960;84;21528;-74